createdAt,value
2018-12-20T00:00:40.812Z,98152.22
2018-12-20T00:03:09.312Z,98137.91
2018-12-20T00:05:37.975Z,98129.73
2018-12-20T00:08:06.547Z,98133.33
2018-12-20T00:10:35.010Z,98132.02
2018-12-20T00:13:03.481Z,98142.85
2018-12-20T00:15:32.063Z,98150.08
2018-12-20T00:18:00.683Z,98143.52
2018-12-20T00:20:29.231Z,98145.80
2018-12-20T00:22:57.733Z,98141.22
2018-12-20T00:31:13.671Z,98132.01
2018-12-20T00:36:35.496Z,98138.23
2018-12-20T00:39:06.142Z,98142.83
2018-12-20T00:45:07.383Z,98141.85
2018-12-20T01:27:50.672Z,98187.34
2018-12-20T01:30:19.221Z,98194.72
2018-12-20T01:32:47.753Z,98195.68
2018-12-20T01:35:16.261Z,98189.10
2018-12-20T01:43:30.321Z,98182.17
2018-12-20T01:45:58.792Z,98182.84
2018-12-20T01:51:23.782Z,98196.14
2018-12-20T01:53:52.388Z,98185.16
2018-12-20T01:56:20.909Z,98190.41
2018-12-20T01:58:49.390Z,98185.33
2018-12-20T02:04:10.417Z,98186.47
2018-12-20T02:12:24.227Z,98193.01
2018-12-20T02:14:52.871Z,98185.93
2018-12-20T02:17:21.393Z,98187.88
2018-12-20T02:19:49.844Z,98186.77
2018-12-20T02:22:18.568Z,98188.40
2018-12-20T02:24:47.031Z,98194.61
2018-12-20T02:27:19.552Z,98194.31
2018-12-20T02:29:48.355Z,98192.84
2018-12-20T02:40:55.440Z,98205.25
2018-12-20T02:43:23.927Z,98207.23
2018-12-20T02:48:44.619Z,98207.53
2018-12-20T02:58:31.521Z,98206.20
2018-12-20T03:03:53.135Z,98204.19
2018-12-20T03:12:07.210Z,98202.10
2018-12-20T03:14:36.135Z,98209.99
2018-12-20T03:17:05.126Z,98215.38
2018-12-20T03:19:33.846Z,98215.05
2018-12-20T03:22:02.562Z,98214.22
2018-12-20T03:24:31.219Z,98214.04
2018-12-20T03:27:00.009Z,98211.25
2018-12-20T03:29:28.600Z,98210.10
2018-12-20T03:31:57.626Z,98204.70
2018-12-20T03:34:26.441Z,98201.27
2018-12-20T03:36:55.106Z,98201.59
2018-12-20T03:39:23.657Z,98200.60
2018-12-20T03:41:52.266Z,98206.70
2018-12-20T03:44:20.886Z,98207.53
2018-12-20T03:46:49.408Z,98209.11
2018-12-20T03:49:17.946Z,98210.08
2018-12-20T03:51:46.694Z,98201.87
2018-12-20T03:54:15.707Z,98205.64
2018-12-20T03:56:44.292Z,98205.61
2018-12-20T03:59:12.786Z,98205.96
2018-12-20T04:01:41.382Z,98215.14
2018-12-20T04:04:09.915Z,98219.20
2018-12-20T04:12:55.284Z,98212.48
2018-12-20T04:21:08.719Z,98214.28
2018-12-20T04:23:37.267Z,98222.81
2018-12-20T04:26:06.444Z,98219.02
2018-12-20T04:28:34.866Z,98221.16
2018-12-20T04:31:03.333Z,98221.80
2018-12-20T04:33:31.767Z,98220.67
2018-12-20T04:36:00.345Z,98217.09
2018-12-20T04:38:28.882Z,98217.63
2018-12-20T04:40:57.622Z,98210.91
2018-12-20T04:43:26.228Z,98210.42
2018-12-20T04:45:54.886Z,98220.27
2018-12-20T04:54:08.674Z,98226.94
2018-12-20T04:56:37.316Z,98231.16
2018-12-20T05:01:58.570Z,98235.89
2018-12-20T05:04:27.023Z,98237.08
2018-12-20T05:06:55.478Z,98236.91
2018-12-20T05:09:23.891Z,98233.14
2018-12-20T05:11:52.343Z,98238.23
2018-12-20T05:14:20.983Z,98234.94
2018-12-20T05:16:49.643Z,98233.97
2018-12-20T05:25:03.422Z,98245.42
2018-12-20T05:27:31.891Z,98245.23
2018-12-20T05:33:01.594Z,98241.65
2018-12-20T05:35:30.329Z,98253.70
2018-12-20T05:43:45.053Z,98251.75
2018-12-20T05:46:13.662Z,98251.33
2018-12-20T05:48:42.326Z,98251.33
2018-12-20T05:51:10.906Z,98245.90
2018-12-20T05:53:39.441Z,98252.58
2018-12-20T05:56:07.957Z,98252.70
2018-12-20T05:58:36.392Z,98258.46
2018-12-20T06:01:04.866Z,98266.55
2018-12-20T06:03:33.329Z,98268.08
2018-12-20T06:06:01.860Z,98266.89
2018-12-20T06:08:30.323Z,98268.39
2018-12-20T06:10:58.767Z,98271.33
2018-12-20T06:13:27.396Z,98275.73
2018-12-20T06:15:55.915Z,98274.74
2018-12-20T06:18:24.629Z,98279.03
2018-12-20T06:20:53.251Z,98281.98
2018-12-20T06:23:21.738Z,98286.50
2018-12-20T06:25:50.288Z,98289.00
2018-12-20T06:28:18.773Z,98292.57
2018-12-20T06:30:47.296Z,98290.62
2018-12-20T06:33:16.783Z,98294.04
2018-12-20T06:35:45.235Z,98296.39
2018-12-20T06:38:14.279Z,98293.48
2018-12-20T06:40:42.734Z,98295.52
2018-12-20T06:43:11.284Z,98294.77
2018-12-20T06:45:39.748Z,98306.12
2018-12-20T06:48:08.248Z,98303.18
2018-12-20T06:50:36.710Z,98304.02
2018-12-20T06:53:05.295Z,98296.70
2018-12-20T06:55:33.735Z,98293.33
2018-12-20T06:58:02.387Z,98303.19
2018-12-20T07:00:30.932Z,98297.14
2018-12-20T07:02:59.452Z,98300.28
2018-12-20T07:05:27.915Z,98299.39
2018-12-20T07:07:56.408Z,98306.63
2018-12-20T07:10:24.911Z,98305.00
2018-12-20T07:12:54.821Z,98304.20
2018-12-20T07:15:23.489Z,98301.45
2018-12-20T07:17:52.048Z,98300.97
2018-12-20T07:20:20.523Z,98301.45
2018-12-20T07:22:49.122Z,98313.53
2018-12-20T07:25:17.557Z,98315.20
2018-12-20T07:27:46.038Z,98303.72
2018-12-20T07:30:18.142Z,98306.85
2018-12-20T07:35:47.244Z,98308.13
2018-12-20T07:41:09.800Z,98314.78
2018-12-20T07:46:37.807Z,98300.55
2018-12-20T07:49:01.751Z,98312.23
2018-12-20T07:51:30.248Z,98305.98
2018-12-20T07:59:24.809Z,98325.50
2018-12-20T08:04:46.076Z,98328.00
2018-12-20T08:07:16.032Z,98330.27
2018-12-20T08:09:44.603Z,98349.27
2018-12-20T08:12:13.096Z,98353.51
2018-12-20T08:14:42.163Z,98350.09
2018-12-20T08:17:10.606Z,98348.47
2018-12-20T08:19:39.110Z,98357.00
2018-12-20T08:25:00.480Z,98362.89
2018-12-20T08:27:28.960Z,98359.67
2018-12-20T08:38:33.064Z,98342.39
2018-12-20T08:41:01.524Z,98347.63
2018-12-20T08:43:29.996Z,98339.92
2018-12-20T08:45:58.441Z,98340.01
2018-12-20T08:48:26.907Z,98342.67
2018-12-20T08:50:55.376Z,98354.27
2018-12-20T08:53:23.867Z,98344.30
2018-12-20T08:55:52.323Z,98341.23
2018-12-20T08:58:20.796Z,98346.55
2018-12-20T09:00:49.245Z,98357.05
2018-12-20T09:03:17.717Z,98350.04
2018-12-20T09:05:46.159Z,98359.09
2018-12-20T09:14:00.067Z,98371.59
2018-12-20T09:16:28.544Z,98370.48
2018-12-20T09:18:57.034Z,98380.27
2018-12-20T09:21:26.535Z,98375.73
2018-12-20T09:23:58.701Z,98378.55
2018-12-20T09:26:27.530Z,98381.25
2018-12-20T09:28:56.148Z,98378.94
2018-12-20T09:31:24.620Z,98382.88
2018-12-20T09:33:53.094Z,98380.53
2018-12-20T09:36:21.812Z,98380.57
2018-12-20T09:38:50.285Z,98384.03
2018-12-20T09:41:18.835Z,98389.44
2018-12-20T09:43:47.407Z,98389.32
2018-12-20T09:46:15.863Z,98381.21
2018-12-20T09:48:46.329Z,98376.04
2018-12-20T09:51:14.955Z,98375.64
2018-12-20T09:53:43.452Z,98379.73
2018-12-20T09:56:12.044Z,98377.99
2018-12-20T09:58:40.490Z,98374.05
2018-12-20T10:01:09.017Z,98371.66
2018-12-20T10:03:37.559Z,98375.56
2018-12-20T10:06:06.161Z,98367.22
2018-12-20T10:08:34.767Z,98361.33
2018-12-20T10:11:03.247Z,98367.77
2018-12-20T10:13:31.696Z,98365.20
2018-12-20T10:18:59.035Z,98367.73
2018-12-20T10:21:27.488Z,98364.98
2018-12-20T10:23:55.951Z,98376.25
2018-12-20T10:26:24.519Z,98378.39
2018-12-20T10:28:52.938Z,98372.77
2018-12-20T10:31:21.423Z,98377.37
2018-12-20T10:33:49.880Z,98372.25
2018-12-20T10:36:18.341Z,98369.78
2018-12-20T10:38:46.923Z,98374.07
2018-12-20T10:41:15.398Z,98371.45
2018-12-20T10:43:43.826Z,98361.66
2018-12-20T10:46:12.286Z,98363.16
2018-12-20T10:48:40.722Z,98359.22
2018-12-20T10:51:09.173Z,98355.92
2018-12-20T10:53:37.616Z,98356.97
2018-12-20T10:56:06.100Z,98355.47
2018-12-20T10:58:34.546Z,98358.92
2018-12-20T11:01:08.339Z,98355.81
2018-12-20T11:03:42.151Z,98358.12
2018-12-20T11:07:14.501Z,98362.88
2018-12-20T11:09:48.206Z,98355.47
2018-12-20T11:12:20.789Z,98351.72
2018-12-20T11:14:49.263Z,98351.69
2018-12-20T11:17:17.691Z,98337.25
2018-12-20T11:19:46.163Z,98356.16
2018-12-20T11:22:14.603Z,98340.91
2018-12-20T11:24:43.076Z,98345.84
2018-12-20T11:27:11.508Z,98350.96
2018-12-20T11:29:40.007Z,98341.74
2018-12-20T11:32:08.472Z,98344.58
2018-12-20T11:34:36.911Z,98346.05
2018-12-20T11:37:05.375Z,98341.77
2018-12-20T11:39:33.870Z,98333.89
2018-12-20T11:42:02.331Z,98348.48
2018-12-20T11:44:31.003Z,98349.32
2018-12-20T11:46:59.583Z,98345.41
2018-12-20T11:49:28.042Z,98347.05
2018-12-20T11:51:56.487Z,98340.67
2018-12-20T11:54:24.932Z,98346.95
2018-12-20T11:56:53.378Z,98349.89
2018-12-20T11:59:21.826Z,98349.09
2018-12-20T12:01:50.294Z,98343.01
2018-12-20T12:04:18.714Z,98344.66
2018-12-20T12:06:47.191Z,98342.17
2018-12-20T12:09:15.615Z,98338.73
2018-12-20T12:11:44.125Z,98332.65
2018-12-20T12:14:12.591Z,98336.92
2018-12-20T12:16:41.175Z,98338.56
2018-12-20T12:19:09.583Z,98338.88
2018-12-20T12:21:38.038Z,98335.92
2018-12-20T12:24:06.468Z,98337.26
2018-12-20T12:26:35.038Z,98334.96
2018-12-20T12:29:03.601Z,98341.88
2018-12-20T12:31:32.076Z,98334.50
2018-12-20T12:34:00.527Z,98337.14
2018-12-20T12:36:29.140Z,98338.14
2018-12-20T12:38:57.583Z,98335.33
2018-12-20T12:41:26.084Z,98338.96
2018-12-20T12:43:54.515Z,98328.61
2018-12-20T12:46:22.963Z,98325.48
2018-12-20T12:48:51.392Z,98337.64
2018-12-20T12:51:19.814Z,98330.41
2018-12-20T12:53:48.285Z,98330.41
2018-12-20T12:56:16.724Z,98337.97
2018-12-20T12:58:45.191Z,98344.39
2018-12-20T13:01:14.776Z,98342.41
2018-12-20T13:03:43.255Z,98346.33
2018-12-20T13:06:11.739Z,98336.23
2018-12-20T13:08:40.215Z,98332.48
2018-12-20T13:11:08.671Z,98336.97
2018-12-20T13:13:37.146Z,98336.54
2018-12-20T13:16:05.628Z,98343.50
2018-12-20T13:18:34.106Z,98350.94
2018-12-20T13:21:02.540Z,98351.77
2018-12-20T13:23:30.999Z,98350.27
2018-12-20T13:25:59.459Z,98344.20
2018-12-20T13:28:27.919Z,98352.59
2018-12-20T13:30:56.391Z,98351.61
2018-12-20T13:33:24.850Z,98344.38
2018-12-20T13:35:53.286Z,98335.19
2018-12-20T13:38:21.801Z,98342.05
2018-12-20T13:40:50.315Z,98338.77
2018-12-20T13:43:18.791Z,98340.59
2018-12-20T13:45:47.234Z,98335.51
2018-12-20T13:48:22.173Z,98338.11
2018-12-20T13:50:46.175Z,98335.00
2018-12-20T13:53:14.630Z,98337.80
2018-12-20T13:55:43.093Z,98344.86
2018-12-20T13:58:11.622Z,98349.62
2018-12-20T14:00:40.484Z,98352.42
2018-12-20T14:03:09.086Z,98357.00
2018-12-20T14:05:37.527Z,98356.52
2018-12-20T14:08:05.995Z,98356.86
2018-12-20T14:10:34.477Z,98359.81
2018-12-20T14:13:02.948Z,98365.38
2018-12-20T14:15:31.431Z,98367.39
2018-12-20T14:17:59.899Z,98366.55
2018-12-20T14:20:28.331Z,98366.05
2018-12-20T14:22:56.802Z,98361.81
2018-12-20T14:25:25.261Z,98360.50
2018-12-20T14:27:53.739Z,98365.09
2018-12-20T14:30:22.157Z,98365.91
2018-12-20T14:32:50.602Z,98367.89
2018-12-20T14:35:19.071Z,98365.74
2018-12-20T14:37:47.519Z,98369.52
2018-12-20T14:40:15.998Z,98366.74
2018-12-20T14:42:44.519Z,98365.10
2018-12-20T14:45:13.126Z,98365.26
2018-12-20T14:47:41.551Z,98370.84
2018-12-20T14:50:10.331Z,98361.97
2018-12-20T14:52:38.776Z,98367.22
2018-12-20T14:55:08.765Z,98369.85
2018-12-20T14:57:37.311Z,98367.06
2018-12-20T15:00:07.683Z,98372.97
2018-12-20T15:02:36.138Z,98368.86
2018-12-20T15:05:04.955Z,98363.09
2018-12-20T15:07:33.418Z,98372.30
2018-12-20T15:10:01.937Z,98374.75
2018-12-20T15:12:30.381Z,98366.53
2018-12-20T15:14:58.881Z,98375.05
2018-12-20T15:17:27.343Z,98377.35
2018-12-20T15:19:55.827Z,98385.72
2018-12-20T15:22:24.272Z,98380.79
2018-12-20T15:24:52.751Z,98380.79
2018-12-20T15:27:21.194Z,98385.37
2018-12-20T15:29:49.656Z,98389.16
2018-12-20T15:32:18.066Z,98385.57
2018-12-20T15:34:46.581Z,98387.37
2018-12-20T15:37:15.034Z,98383.59
2018-12-20T15:39:43.535Z,98393.45
2018-12-20T15:42:11.992Z,98390.19
2018-12-20T15:44:40.501Z,98396.09
2018-12-20T15:47:09.044Z,98394.92
2018-12-20T15:49:41.916Z,98397.41
2018-12-20T15:52:08.016Z,98398.23
2018-12-20T15:54:36.512Z,98394.63
2018-12-20T15:57:04.963Z,98392.65
2018-12-20T15:59:33.407Z,98388.54
2018-12-20T16:02:01.851Z,98395.75
2018-12-20T16:04:30.328Z,98387.86
2018-12-20T16:06:58.779Z,98382.26
2018-12-20T16:09:27.236Z,98383.42
2018-12-20T16:11:55.680Z,98387.19
2018-12-20T16:14:24.201Z,98389.52
2018-12-20T16:16:52.641Z,98398.42
2018-12-20T16:19:21.138Z,98391.04
2018-12-20T16:21:49.819Z,98388.08
2018-12-20T16:24:18.287Z,98385.13
2018-12-20T16:26:46.763Z,98396.31
2018-12-20T16:29:15.193Z,98385.32
2018-12-20T16:31:43.777Z,98397.16
2018-12-20T16:34:12.548Z,98384.14
2018-12-20T16:36:41.047Z,98394.19
2018-12-20T16:39:09.717Z,98396.15
2018-12-20T16:41:38.187Z,98392.20
2018-12-20T16:44:06.619Z,98396.81
2018-12-20T16:46:35.097Z,98394.17
2018-12-20T16:49:03.551Z,98401.23
2018-12-20T16:51:32.021Z,98403.86
2018-12-20T16:54:00.462Z,98410.13
2018-12-20T16:56:28.936Z,98421.77
2018-12-20T16:58:57.367Z,98422.25
2018-12-20T17:01:25.855Z,98415.86
2018-12-20T17:03:54.295Z,98422.09
2018-12-20T17:06:22.776Z,98420.79
2018-12-20T17:08:51.205Z,98424.09
2018-12-20T17:11:19.664Z,98414.23
2018-12-20T17:13:48.131Z,98418.86
2018-12-20T17:16:16.741Z,98407.84
2018-12-20T17:18:45.194Z,98404.38
2018-12-20T17:21:13.675Z,98399.12
2018-12-20T17:23:42.111Z,98401.07
2018-12-20T17:26:10.558Z,98403.35
2018-12-20T17:28:39.007Z,98401.69
2018-12-20T17:31:07.459Z,98407.92
2018-12-20T17:33:35.895Z,98399.39
2018-12-20T17:36:04.379Z,98411.70
2018-12-20T17:38:32.943Z,98410.72
2018-12-20T17:41:01.435Z,98412.70
2018-12-20T17:43:29.891Z,98420.10
2018-12-20T17:45:58.375Z,98421.11
2018-12-20T17:48:29.433Z,98412.41
2018-12-20T17:50:57.314Z,98413.22
2018-12-20T17:53:25.879Z,98404.52
2018-12-20T17:55:54.553Z,98409.61
2018-12-20T17:58:23.199Z,98410.44
2018-12-20T18:00:51.680Z,98402.05
2018-12-20T18:03:20.167Z,98393.48
2018-12-20T18:05:48.648Z,98400.04
2018-12-20T18:08:17.097Z,98392.48
2018-12-20T18:10:45.571Z,98397.08
2018-12-20T18:13:14.054Z,98400.34
2018-12-20T18:15:42.553Z,98398.39
2018-12-20T18:18:10.971Z,98401.02
2018-12-20T18:20:39.427Z,98403.00
2018-12-20T18:23:07.954Z,98410.86
2018-12-20T18:25:36.571Z,98401.52
2018-12-20T18:28:05.039Z,98407.59
2018-12-20T18:30:33.517Z,98417.94
2018-12-20T18:33:02.092Z,98416.33
2018-12-20T18:35:30.574Z,98420.27
2018-12-20T18:37:59.032Z,98425.19
2018-12-20T18:40:27.552Z,98425.02
2018-12-20T18:42:56.002Z,98431.58
2018-12-20T18:45:24.476Z,98435.19
2018-12-20T18:47:53.055Z,98435.85
2018-12-20T18:50:21.520Z,98444.56
2018-12-20T18:52:50.032Z,98445.41
2018-12-20T18:55:18.534Z,98451.16
2018-12-20T18:57:46.982Z,98448.88
2018-12-20T19:00:15.664Z,98454.63
2018-12-20T19:02:44.127Z,98456.27
2018-12-20T19:05:12.580Z,98460.86
2018-12-20T19:07:41.064Z,98456.41
2018-12-20T19:10:09.713Z,98460.19
2018-12-20T19:12:38.184Z,98459.09
2018-12-20T19:15:08.419Z,98461.40
2018-12-20T19:17:36.900Z,98461.72
2018-12-20T19:20:06.914Z,98468.31
2018-12-20T19:22:37.074Z,98462.72
2018-12-20T19:25:06.435Z,98467.02
2018-12-20T19:27:34.908Z,98468.66
2018-12-20T19:30:03.515Z,98462.91
2018-12-20T19:32:31.979Z,98462.25
2018-12-20T19:35:00.439Z,98469.33
2018-12-20T19:37:28.927Z,98468.00
2018-12-20T19:40:02.428Z,98467.66
2018-12-20T19:42:30.879Z,98466.17
2018-12-20T19:44:59.303Z,98465.02
2018-12-20T19:47:27.763Z,98471.25
2018-12-20T19:50:04.602Z,98472.56
2018-12-20T19:52:27.159Z,98469.45
2018-12-20T19:54:55.811Z,98470.08
2018-12-20T19:57:24.684Z,98476.00
2018-12-20T19:59:54.043Z,98479.95
2018-12-20T20:02:23.524Z,98474.69
2018-12-20T20:04:52.881Z,98471.70
2018-12-20T20:07:21.411Z,98467.30
2018-12-20T20:09:49.892Z,98468.13
2018-12-20T20:12:18.410Z,98465.52
2018-12-20T20:14:47.072Z,98463.20
2018-12-20T20:17:15.539Z,98474.56
2018-12-20T20:19:43.978Z,98465.52
2018-12-20T20:22:12.694Z,98471.92
2018-12-20T20:24:41.130Z,98471.11
2018-12-20T20:27:09.607Z,98465.68
2018-12-20T20:29:38.049Z,98469.80
2018-12-20T20:32:06.548Z,98466.83
2018-12-20T20:34:35.105Z,98468.14
2018-12-20T20:37:03.584Z,98469.16
2018-12-20T20:39:32.029Z,98459.27
2018-12-20T20:42:00.503Z,98468.83
2018-12-20T20:44:28.954Z,98466.36
2018-12-20T20:46:57.423Z,98472.45
2018-12-20T20:49:25.871Z,98475.73
2018-12-20T20:51:54.373Z,98470.45
2018-12-20T20:54:22.815Z,98474.72
2018-12-20T20:56:51.293Z,98474.41
2018-12-20T20:59:19.743Z,98475.07
2018-12-20T21:01:48.311Z,98474.25
2018-12-20T21:04:16.765Z,98479.86
2018-12-20T21:06:47.074Z,98479.68
2018-12-20T21:09:15.687Z,98476.90
2018-12-20T21:11:44.128Z,98479.70
2018-12-20T21:14:12.624Z,98480.02
2018-12-20T21:16:41.077Z,98476.73
2018-12-20T21:19:09.536Z,98494.31
2018-12-20T21:21:38.012Z,98501.08
2018-12-20T21:24:06.615Z,98500.89
2018-12-20T21:26:35.067Z,98503.86
2018-12-20T21:29:03.543Z,98503.70
2018-12-20T21:31:31.982Z,98504.17
2018-12-20T21:34:00.492Z,98508.30
2018-12-20T21:36:28.945Z,98496.80
2018-12-20T21:38:57.423Z,98507.66
2018-12-20T21:41:25.895Z,98509.64
2018-12-20T21:43:54.358Z,98502.38
2018-12-20T21:46:22.813Z,98503.38
2018-12-20T21:48:51.284Z,98509.45
2018-12-20T21:51:19.726Z,98509.78
2018-12-20T21:53:54.847Z,98507.78
2018-12-20T22:03:14.013Z,98531.81
2018-12-20T22:05:42.427Z,98526.55
2018-12-20T22:08:10.894Z,98532.80
2018-12-20T22:10:39.339Z,98531.19
2018-12-20T22:13:07.810Z,98536.81
2018-12-20T22:15:36.286Z,98540.92
2018-12-20T22:18:04.763Z,98543.11
2018-12-20T22:20:33.206Z,98546.73
2018-12-20T22:23:01.663Z,98550.39
2018-12-20T22:25:30.140Z,98555.31
2018-12-20T22:27:58.588Z,98556.64
2018-12-20T22:30:27.075Z,98550.23
2018-12-20T22:32:55.506Z,98548.13
2018-12-20T22:35:23.961Z,98553.05
2018-12-20T22:37:52.403Z,98559.16
2018-12-20T22:40:20.859Z,98549.12
2018-12-20T22:42:49.281Z,98553.73
2018-12-20T22:45:17.737Z,98556.84
2018-12-20T22:47:46.178Z,98553.39
2018-12-20T22:50:14.637Z,98542.54
2018-12-20T22:52:43.203Z,98549.61
2018-12-20T22:55:11.667Z,98540.08
2018-12-20T22:57:40.081Z,98531.67
2018-12-20T23:00:11.360Z,98536.11
2018-12-20T23:02:39.962Z,98541.19
2018-12-20T23:05:08.443Z,98547.97
2018-12-20T23:07:36.904Z,98539.24
2018-12-20T23:10:05.943Z,98530.69
2018-12-20T23:12:34.379Z,98534.31
2018-12-20T23:15:02.887Z,98525.59
2018-12-20T23:17:31.331Z,98529.39
2018-12-20T23:19:59.782Z,98525.61
2018-12-20T23:22:28.217Z,98537.61
2018-12-20T23:24:56.683Z,98536.64
2018-12-20T23:27:25.111Z,98530.21
2018-12-20T23:29:53.550Z,98528.56
2018-12-20T23:32:21.991Z,98524.47
2018-12-20T23:34:50.458Z,98522.83
2018-12-20T23:37:18.903Z,98518.37
2018-12-20T23:39:47.382Z,98509.64
2018-12-20T23:42:16.339Z,98513.45
2018-12-20T23:44:44.847Z,98515.07
2018-12-20T23:47:13.275Z,98520.69
2018-12-20T23:49:41.730Z,98522.16
2018-12-20T23:52:10.239Z,98516.40
2018-12-20T23:54:38.715Z,98522.80
2018-12-20T23:57:07.147Z,98526.91
2018-12-20T23:59:35.614Z,98523.80
